Time;durP1;ratioP1;P1;durP2;ratioP2;P2;SDS_P1;SDS_P2;PMS_P1;PMS_P2;Temp;Humidity;BMP_temperature;BMP_pressure;BME280_temperature;BME280_humidity;BME280_pressure;Samples;Min_cycle;Max_cycle;Signal;HPM_P1;HPM_P2
2024/01/15 00:00:30;;;;;;;15.40;5.47;;;;;;;0.36;67.19;99223.59;10332978;28;20105;-58
2024/01/15 00:05:32;;;;;;;21.85;5.93;;;;;;;0.28;67.65;99215.53;10335105;28;20501;-56
2024/01/15 00:10:33;;;;;;;25.85;7.22;;;;;;;0.34;67.45;99215.81;10334240;28;20056;-57
2024/01/15 00:15:35;;;;;;;21.67;6.18;;;;;;;0.37;67.50;99210.22;10318183;28;20419;-58
2024/01/15 00:20:36;;;;;;;17.60;5.40;;;;;;;0.41;67.07;99199.38;10334598;28;20105;-57
2024/01/15 00:25:38;;;;;;;18.65;5.22;;;;;;;0.33;67.35;99198.25;10336328;28;20042;-58
2024/01/15 00:30:39;;;;;;;15.55;5.35;;;;;;;0.29;67.05;99196.03;10331875;28;20186;-59
2024/01/15 00:35:41;;;;;;;14.65;4.90;;;;;;;0.32;67.19;99203.72;10332404;28;20046;-58
2024/01/15 00:40:42;;;;;;;18.73;6.43;;;;;;;0.19;67.50;99185.47;10318858;28;20409;-58
2024/01/15 00:45:44;;;;;;;23.13;7.07;;;;;;;0.11;67.71;99180.88;10333383;28;20149;-57
2024/01/15 00:50:46;;;;;;;19.48;7.25;;;;;;;0.14;67.78;99171.84;10330306;28;20136;-58
2024/01/15 00:55:48;;;;;;;20.38;6.53;;;;;;;0.16;67.80;99172.56;10331710;28;20038;-58
2024/01/15 01:00:50;;;;;;;15.95;6.18;;;;;;;0.19;67.70;99172.25;10332064;28;20051;-58
2024/01/15 01:05:51;;;;;;;21.70;6.13;;;;;;;0.13;68.04;99172.81;10337769;28;20042;-58
2024/01/15 01:10:53;;;;;;;19.85;6.63;;;;;;;0.26;67.89;99169.88;10339244;28;20054;-58
2024/01/15 01:15:54;;;;;;;25.83;7.28;;;;;;;0.32;68.42;99164.91;10336289;28;20041;-58
2024/01/15 01:20:55;;;;;;;22.52;5.82;;;;;;;0.43;67.70;99166.53;10338442;28;20138;-56
2024/01/15 01:25:57;;;;;;;23.58;5.85;;;;;;;0.35;68.32;99153.19;10342424;28;20049;-57
2024/01/15 01:30:59;;;;;;;21.38;5.47;;;;;;;0.41;68.19;99157.91;10340528;28;20721;-57
2024/01/15 01:36:07;;;;;;;20.38;6.20;;;;;;;0.34;68.24;99146.25;10340197;28;20140;-56
2024/01/15 01:41:10;;;;;;;21.35;6.03;;;;;;;0.32;68.44;99161.44;10329659;28;20066;-56
2024/01/15 01:46:11;;;;;;;21.92;5.78;;;;;;;0.49;68.28;99150.13;10339793;28;20054;-57
2024/01/15 01:51:13;;;;;;;19.45;6.45;;;;;;;0.45;68.29;99150.53;10342004;28;20060;-57
2024/01/15 01:56:15;;;;;;;15.63;4.65;;;;;;;0.33;68.27;99150.69;10339742;28;20061;-57
2024/01/15 02:01:18;;;;;;;20.73;6.22;;;;;;;0.42;68.09;99140.28;10336387;28;20038;-57
2024/01/15 02:06:19;;;;;;;24.63;6.40;;;;;;;0.43;68.29;99131.34;10331422;28;20089;-57
2024/01/15 02:11:21;;;;;;;21.85;6.40;;;;;;;0.47;68.11;99130.09;10335938;28;20066;-58
2024/01/15 02:16:22;;;;;;;23.35;7.00;;;;;;;0.52;67.57;99126.06;10323323;28;20058;-57
2024/01/15 02:21:26;;;;;;;16.02;6.07;;;;;;;0.59;67.75;99123.66;10335580;28;20413;-57
2024/01/15 02:26:28;;;;;;;21.98;6.47;;;;;;;0.63;67.61;99117.09;10332252;28;20058;-57
2024/01/15 02:31:29;;;;;;;20.10;5.90;;;;;;;0.67;67.83;99118.53;10332926;28;20042;-57
2024/01/15 02:36:31;;;;;;;17.40;5.75;;;;;;;0.79;67.90;99130.59;10332940;28;20054;-59
2024/01/15 02:41:32;;;;;;;21.50;6.10;;;;;;;0.78;67.96;99128.91;10334221;28;20080;-59
2024/01/15 02:46:34;;;;;;;25.33;5.65;;;;;;;0.88;67.30;99115.66;10326533;28;20421;-59
2024/01/15 02:51:35;;;;;;;19.95;6.55;;;;;;;0.77;67.57;99131.69;10332746;28;20054;-58
2024/01/15 02:56:37;;;;;;;26.30;7.85;;;;;;;0.71;68.05;99130.47;10324696;28;20050;-59
2024/01/15 03:01:38;;;;;;;19.52;5.82;;;;;;;0.66;68.13;99134.53;10334604;28;20065;-58
2024/01/15 03:06:39;;;;;;;26.02;7.72;;;;;;;0.56;69.05;99124.78;10328775;28;20053;-59
2024/01/15 03:11:41;;;;;;;21.33;4.95;;;;;;;0.61;68.98;99127.00;10333595;28;20054;-59
2024/01/15 03:16:42;;;;;;;19.05;6.03;;;;;;;0.67;68.79;99122.94;10337821;28;20054;-59
2024/01/15 03:21:44;;;;;;;26.02;7.07;;;;;;;0.63;68.59;99124.22;10318125;28;20119;-58
2024/01/15 03:26:45;;;;;;;25.25;7.40;;;;;;;0.65;68.54;99122.25;10333376;28;20416;-58
2024/01/15 03:31:47;;;;;;;20.20;6.05;;;;;;;0.62;68.60;99122.56;10341440;28;20046;-58
2024/01/15 03:36:48;;;;;;;22.98;7.35;;;;;;;0.61;69.04;99116.41;10321121;28;20509;-58
2024/01/15 03:41:50;;;;;;;19.45;6.07;;;;;;;0.63;68.66;99111.00;10334662;28;20065;-58
2024/01/15 03:46:51;;;;;;;15.25;5.10;;;;;;;0.65;68.76;99127.56;10336234;28;20065;-56
2024/01/15 03:51:53;;;;;;;16.35;5.28;;;;;;;0.65;68.70;99117.81;10335288;28;20547;-56
2024/01/15 03:56:54;;;;;;;19.25;6.15;;;;;;;0.67;69.12;99102.66;10336228;28;20634;-57
2024/01/15 04:01:56;;;;;;;18.35;5.78;;;;;;;0.61;69.16;99100.56;10331474;28;20053;-59
2024/01/15 04:06:57;;;;;;;18.50;6.70;;;;;;;0.65;68.95;99107.22;10335921;28;20401;-58
2024/01/15 04:11:58;;;;;;;17.13;5.32;;;;;;;0.66;69.76;99105.44;10336743;28;20053;-57
2024/01/15 04:17:00;;;;;;;20.63;6.80;;;;;;;0.65;68.98;99103.75;10334701;28;20064;-58
2024/01/15 04:22:01;;;;;;;19.75;6.70;;;;;;;0.68;69.63;99096.38;10328213;28;20069;-58
2024/01/15 04:27:03;;;;;;;17.95;5.60;;;;;;;0.68;69.73;99092.91;10335508;28;20145;-58
2024/01/15 04:32:05;;;;;;;21.52;6.82;;;;;;;0.71;69.15;99089.94;10330341;28;20054;-57
2024/01/15 04:37:07;;;;;;;19.70;6.18;;;;;;;0.71;70.00;99087.31;10332889;28;20046;-57
2024/01/15 04:42:08;;;;;;;19.90;5.55;;;;;;;0.63;70.07;99098.59;10339704;28;20050;-57
2024/01/15 04:47:10;;;;;;;17.67;5.68;;;;;;;0.71;69.05;99088.16;10338491;28;20448;-58
2024/01/15 04:52:12;;;;;;;22.70;6.50;;;;;;;0.73;68.95;99083.56;10337647;28;20371;-58
2024/01/15 04:57:13;;;;;;;16.73;5.47;;;;;;;0.68;69.97;99079.69;10336632;28;20051;-58
2024/01/15 05:02:15;;;;;;;21.58;6.63;;;;;;;0.70;69.69;99073.25;10341238;28;20169;-59
2024/01/15 05:07:16;;;;;;;17.73;5.55;;;;;;;0.66;69.79;99069.25;10339561;28;20057;-58
2024/01/15 05:12:18;;;;;;;17.23;5.72;;;;;;;0.73;69.81;99062.41;10337467;28;20042;-58
2024/01/15 05:17:19;;;;;;;16.08;4.85;;;;;;;0.79;69.46;99072.41;10341742;28;20416;-58
2024/01/15 05:22:21;;;;;;;16.13;6.07;;;;;;;0.90;69.36;99073.19;10342498;28;20048;-58
2024/01/15 05:27:22;;;;;;;21.05;5.85;;;;;;;0.95;69.21;99057.72;10340981;28;20193;-58
2024/01/15 05:32:24;;;;;;;19.17;5.65;;;;;;;0.91;69.74;99048.38;10337012;28;20049;-57
2024/01/15 05:37:25;;;;;;;17.98;5.90;;;;;;;0.88;69.31;99049.53;10333603;28;20127;-57
2024/01/15 05:42:29;;;;;;;17.83;6.28;;;;;;;0.91;69.72;99066.91;10335765;28;20425;-57
2024/01/15 05:47:31;;;;;;;24.73;5.88;;;;;;;0.99;69.60;99067.84;10336841;28;20081;-57
2024/01/15 05:52:33;;;;;;;19.92;7.22;;;;;;;1.02;68.93;99063.25;10336340;28;20080;-57
2024/01/15 05:57:34;;;;;;;15.73;5.80;;;;;;;1.11;69.30;99063.19;10340596;28;20489;-58
2024/01/15 06:02:37;;;;;;;26.10;6.45;;;;;;;1.10;68.92;99061.53;10339257;28;20674;-58
2024/01/15 06:07:39;;;;;;;16.45;5.03;;;;;;;1.06;69.66;99068.09;10335681;28;20561;-57
2024/01/15 06:12:40;;;;;;;20.90;4.95;;;;;;;1.05;68.87;99071.72;10332661;28;20057;-57
2024/01/15 06:17:42;;;;;;;17.58;5.35;;;;;;;1.02;69.39;99064.06;10333853;28;20863;-59
2024/01/15 06:22:43;;;;;;;25.27;6.05;;;;;;;1.08;69.74;99067.94;10340231;28;20412;-57
2024/01/15 06:27:45;;;;;;;21.17;5.60;;;;;;;1.03;69.70;99060.47;10342680;28;20084;-58
2024/01/15 06:32:46;;;;;;;22.30;5.53;;;;;;;0.96;69.71;99060.19;10340781;28;20065;-60
2024/01/15 06:37:48;;;;;;;20.35;7.15;;;;;;;0.97;69.38;99075.09;10334470;28;20505;-58
2024/01/15 06:42:49;;;;;;;22.73;7.35;;;;;;;0.97;69.86;99067.16;10335131;28;20049;-58
2024/01/15 06:47:51;;;;;;;23.85;7.10;;;;;;;1.03;70.11;99062.25;10340498;28;20050;-60
2024/01/15 06:52:52;;;;;;;18.00;5.38;;;;;;;1.07;69.67;99066.31;10340896;28;20051;-58
2024/01/15 06:57:54;;;;;;;21.70;6.43;;;;;;;1.11;69.75;99049.16;10348494;28;20096;-59
2024/01/15 07:02:56;;;;;;;19.10;6.97;;;;;;;1.08;69.78;99034.38;10343936;28;20053;-59
2024/01/15 07:07:58;;;;;;;23.92;6.68;;;;;;;1.03;70.15;99044.59;10338648;28;20054;-59
2024/01/15 07:13:00;;;;;;;22.70;7.05;;;;;;;1.14;69.55;99048.84;10343171;28;20050;-63
2024/01/15 07:18:01;;;;;;;25.27;7.78;;;;;;;1.19;70.15;99063.28;10333861;28;20058;-62
2024/01/15 07:23:04;;;;;;;25.92;7.47;;;;;;;1.18;69.79;99052.84;10341410;28;20482;-61
2024/01/15 07:28:05;;;;;;;28.75;8.75;;;;;;;1.16;70.48;99052.16;10349915;28;20050;-60
2024/01/15 07:33:07;;;;;;;27.40;8.15;;;;;;;1.19;70.05;99046.59;10332848;28;20046;-62
2024/01/15 07:38:10;;;;;;;19.08;7.50;;;;;;;1.18;70.01;99061.66;10348019;28;20050;-62
2024/01/15 07:43:11;;;;;;;22.42;7.03;;;;;;;1.16;70.13;99068.03;10350137;28;20140;-61
2024/01/15 07:48:12;;;;;;;21.33;6.55;;;;;;;1.18;70.93;99064.28;10343696;28;20050;-64
2024/01/15 07:53:14;;;;;;;20.15;7.40;;;;;;;1.34;70.35;99047.75;10347998;28;20121;-62
2024/01/15 07:58:15;;;;;;;24.90;6.95;;;;;;;1.35;70.12;99052.06;10340996;28;20052;-61
2024/01/15 08:03:17;;;;;;;22.70;6.38;;;;;;;1.36;70.51;99045.78;10347911;28;20066;-62
2024/01/15 08:08:21;;;;;;;22.83;7.20;;;;;;;1.44;70.63;99057.44;10335318;28;20058;-61
2024/01/15 08:13:22;;;;;;;27.83;7.03;;;;;;;1.50;70.11;99046.22;10359444;28;20038;-63
2024/01/15 08:18:25;;;;;;;25.13;6.78;;;;;;;1.48;70.19;99051.72;10365815;28;20053;-62
2024/01/15 08:23:28;;;;;;;18.67;6.95;;;;;;;1.48;70.01;99042.91;10368126;28;20042;-60
2024/01/15 08:28:29;;;;;;;30.83;8.68;;;;;;;1.47;70.33;99049.19;10359855;28;20132;-61
2024/01/15 08:33:31;;;;;;;22.88;7.25;;;;;;;1.47;70.83;99030.66;10354746;28;20080;-60
2024/01/15 08:38:32;;;;;;;22.75;7.53;;;;;;;1.58;70.73;99031.28;10363610;28;20061;-61
2024/01/15 08:43:34;;;;;;;22.67;7.60;;;;;;;1.63;69.99;99035.28;10362653;28;20052;-62
2024/01/15 08:48:36;;;;;;;30.15;8.40;;;;;;;1.63;70.72;99037.94;10346698;28;20618;-63
2024/01/15 08:53:39;;;;;;;25.77;8.32;;;;;;;1.72;70.48;99034.38;10361664;28;20069;-62
2024/01/15 08:58:40;;;;;;;27.75;8.15;;;;;;;1.76;70.76;99036.56;10362928;28;20717;-62
2024/01/15 09:03:42;;;;;;;25.15;6.97;;;;;;;1.81;70.82;99029.97;10356752;28;20054;-63
2024/01/15 09:08:44;;;;;;;29.00;6.95;;;;;;;1.78;70.25;99018.72;10361135;28;20053;-63
2024/01/15 09:13:46;;;;;;;23.60;8.05;;;;;;;1.82;70.72;99021.03;10357947;28;20114;-64
2024/01/15 09:18:47;;;;;;;23.98;7.57;;;;;;;2.02;69.95;99013.75;10364452;28;20054;-64
2024/01/15 09:23:48;;;;;;;21.48;6.20;;;;;;;2.36;69.56;99014.66;10356346;28;20045;-64
2024/01/15 09:28:50;;;;;;;21.17;7.05;;;;;;;2.61;69.47;99012.16;10364555;28;20054;-64
2024/01/15 09:33:55;;;;;;;15.95;6.22;;;;;;;2.86;69.33;98997.16;10357289;28;20169;-65
2024/01/15 09:38:57;;;;;;;21.45;6.78;;;;;;;3.03;69.04;98997.22;10348765;28;20049;-68
2024/01/15 09:43:59;;;;;;;20.02;7.13;;;;;;;3.26;68.75;98992.13;10340674;28;20080;-67
2024/01/15 09:49:01;;;;;;;27.17;7.38;;;;;;;3.33;68.33;98987.81;10344986;28;20053;-67
2024/01/15 09:54:04;;;;;;;16.35;6.72;;;;;;;3.44;68.70;99002.63;10334559;28;20057;-67
2024/01/15 09:59:06;;;;;;;20.52;7.43;;;;;;;3.41;68.18;98981.72;10335660;28;20054;-67
2024/01/15 10:04:07;;;;;;;17.80;7.03;;;;;;;3.38;67.81;98972.25;10343466;28;20042;-68
2024/01/15 10:09:09;;;;;;;16.05;5.95;;;;;;;3.25;67.84;98974.53;10320782;28;20062;-68
2024/01/15 10:14:14;;;;;;;20.02;7.72;;;;;;;3.14;67.97;98960.59;10334759;28;20137;-68
2024/01/15 10:19:15;;;;;;;23.67;7.30;;;;;;;3.13;67.65;98958.09;10339732;28;20046;-67
2024/01/15 10:24:17;;;;;;;18.27;6.18;;;;;;;3.18;67.43;98955.78;10320469;28;20448;-67
2024/01/15 10:29:19;;;;;;;18.13;6.72;;;;;;;3.25;67.19;98953.31;10344241;28;20069;-67
2024/01/15 10:34:20;;;;;;;19.27;6.70;;;;;;;3.29;66.75;98944.84;10333023;28;20105;-68
2024/01/15 10:39:23;;;;;;;18.15;6.22;;;;;;;3.47;66.40;98933.22;10338014;28;20133;-66
2024/01/15 10:44:25;;;;;;;14.57;6.13;;;;;;;3.66;65.95;98930.25;10332638;28;20559;-66
2024/01/15 10:49:28;;;;;;;13.32;5.63;;;;;;;3.65;65.72;98919.78;10338730;28;20054;-67
2024/01/15 10:54:36;;;;;;;18.85;6.53;;;;;;;3.56;65.89;98917.13;10341138;28;20501;-66
2024/01/15 10:59:38;;;;;;;13.98;5.72;;;;;;;3.86;65.80;98904.16;10419855;22;20053;-83
2024/01/15 11:04:40;;;;;;;18.35;6.25;;;;;;;3.89;65.65;98892.34;10419652;28;20033;-84
2024/01/15 11:09:46;;;;;;;18.65;6.82;;;;;;;3.93;65.41;98891.00;10442963;28;20057;-82
2024/01/15 11:14:49;;;;;;;16.92;7.03;;;;;;;3.69;65.58;98895.38;10408865;28;20060;-83
2024/01/15 11:19:50;;;;;;;15.57;6.63;;;;;;;3.61;65.38;98899.84;10415139;28;20033;-83
2024/01/15 11:24:54;;;;;;;15.52;5.32;;;;;;;3.62;65.65;98898.88;10440725;28;20127;-84
2024/01/15 11:30:09;;;;;;;14.52;5.80;;;;;;;3.56;65.34;98887.09;10437209;28;20053;-83
2024/01/15 11:35:10;;;;;;;15.05;5.43;;;;;;;3.61;66.01;98884.75;10407600;23;20105;-66
2024/01/15 11:40:14;;;;;;;15.93;6.18;;;;;;;3.76;65.50;98891.03;10378009;28;20049;-65
2024/01/15 11:45:20;;;;;;;16.20;7.32;;;;;;;3.96;65.03;98901.31;10402498;28;20153;-68
2024/01/15 11:50:21;;;;;;;13.98;5.65;;;;;;;4.18;64.96;98895.25;10355502;28;20065;-67
2024/01/15 11:55:45;;;;;;;10.35;4.50;;;;;;;4.25;64.72;98891.94;10348528;28;20058;-68
2024/01/15 12:00:52;;;;;;;12.63;5.45;;;;;;;4.24;64.26;98908.88;10342663;28;20097;-67
2024/01/15 12:05:54;;;;;;;12.40;4.90;;;;;;;4.23;64.27;98913.38;10341662;28;20050;-68
2024/01/15 12:10:56;;;;;;;17.50;6.53;;;;;;;4.07;64.84;98902.75;10348311;28;20050;-69
2024/01/15 12:16:02;;;;;;;12.93;5.68;;;;;;;4.03;65.34;98904.09;10337602;28;20054;-68
2024/01/15 12:21:04;;;;;;;14.95;5.80;;;;;;;3.98;65.87;98901.97;10326777;28;20077;-68
2024/01/15 12:26:05;;;;;;;14.70;5.55;;;;;;;3.96;65.60;98901.31;10352738;28;20077;-68
2024/01/15 12:53:06;;;;;;;6.35;2.67;;;;;;;4.27;65.17;98901.38;3473433;23;20146;-84
2024/01/15 12:58:08;;;;;;;8.25;3.00;;;;;;;4.29;65.47;98907.38;10308542;28;20050;-87
2024/01/15 13:03:10;;;;;;;7.18;3.40;;;;;;;4.28;65.87;98919.00;10315577;28;20503;-88
2024/01/15 13:08:13;;;;;;;9.57;2.95;;;;;;;4.45;65.54;98895.84;10297380;28;20137;-88
2024/01/15 13:13:15;;;;;;;6.32;2.97;;;;;;;4.44;65.03;98902.16;10317367;28;20527;-86
2024/01/15 13:18:17;;;;;;;7.28;2.42;;;;;;;4.34;65.07;98899.72;10303351;28;20130;-87
2024/01/15 13:23:19;;;;;;;6.55;3.30;;;;;;;4.47;64.74;98890.34;10313853;28;20046;-88
2024/01/15 13:28:22;;;;;;;6.50;2.13;;;;;;;4.40;64.98;98908.81;10323352;28;20493;-89
2024/01/15 13:33:25;;;;;;;5.47;2.20;;;;;;;4.39;64.43;98914.31;10369858;23;20133;-89
2024/01/15 13:38:27;;;;;;;4.60;1.80;;;;;;;4.55;64.29;98901.78;10264457;28;20075;-88
2024/01/15 13:43:29;;;;;;;3.70;1.77;;;;;;;4.57;64.49;98905.09;10269233;28;20267;-88
2024/01/15 13:48:33;;;;;;;5.32;1.48;;;;;;;4.51;63.92;98915.59;10270946;29;20055;-88
2024/01/15 13:53:38;;;;;;;2.63;1.05;;;;;;;4.55;63.72;98919.56;10259487;28;20504;-85
2024/01/15 13:58:39;;;;;;;4.60;1.48;;;;;;;4.65;63.25;98922.03;10268068;28;20051;-85
2024/01/15 14:03:41;;;;;;;3.08;0.60;;;;;;;4.58;63.42;98932.53;10271457;28;20066;-85
2024/01/15 14:08:43;;;;;;;1.55;0.85;;;;;;;4.42;62.91;98935.25;10274306;28;20047;-85
2024/01/15 14:13:44;;;;;;;3.72;0.55;;;;;;;4.46;62.29;98944.53;10268637;28;20039;-85
2024/01/15 14:18:47;;;;;;;2.83;0.73;;;;;;;4.38;62.45;98948.06;10275715;28;20051;-85
2024/01/15 14:23:49;;;;;;;3.10;1.02;;;;;;;4.27;62.31;98959.91;10288834;28;20083;-85
2024/01/15 14:28:50;;;;;;;1.80;0.80;;;;;;;4.27;62.31;98957.25;10282604;28;20050;-86
2024/01/15 14:33:52;;;;;;;3.28;0.95;;;;;;;4.16;62.13;98958.41;10314577;28;20035;-85
2024/01/15 14:38:54;;;;;;;4.85;0.80;;;;;;;4.08;61.51;98974.38;10309447;28;20120;-85
2024/01/15 14:43:57;;;;;;;3.40;1.10;;;;;;;4.08;61.03;98979.72;10309556;28;20054;-85
2024/01/15 14:48:58;;;;;;;1.83;0.90;;;;;;;4.14;61.28;98981.69;10296134;28;20047;-85
2024/01/15 14:54:00;;;;;;;3.45;1.00;;;;;;;4.23;61.29;98981.69;10297379;28;20047;-85
2024/01/15 14:59:02;;;;;;;2.67;0.60;;;;;;;4.25;61.05;98985.03;10302894;28;20506;-85
2024/01/15 15:04:04;;;;;;;2.88;0.60;;;;;;;4.25;60.63;98993.00;10312921;28;20070;-85
2024/01/15 15:09:09;;;;;;;7.13;0.80;;;;;;;4.30;60.29;99007.44;10311862;28;20058;-86
2024/01/15 15:14:11;;;;;;;4.70;0.70;;;;;;;4.27;60.21;99014.94;10307226;28;20518;-85
2024/01/15 15:19:12;;;;;;;3.78;0.80;;;;;;;4.21;59.86;99023.59;10295506;28;20074;-85
2024/01/15 15:24:14;;;;;;;3.65;0.88;;;;;;;4.27;59.89;99017.59;10297232;28;20059;-85
2024/01/15 15:29:16;;;;;;;1.60;0.50;;;;;;;4.32;60.12;99034.69;10285297;28;20043;-86
2024/01/15 15:34:18;;;;;;;6.25;1.35;;;;;;;4.24;60.25;99042.69;10256553;28;1093344;-85
2024/01/15 15:39:20;;;;;;;4.05;1.38;;;;;;;4.09;60.96;99052.34;10318856;28;20055;-86
2024/01/15 15:44:22;;;;;;;3.45;1.48;;;;;;;4.01;60.73;99063.81;10299065;28;20043;-87
2024/01/15 15:49:23;;;;;;;2.72;1.67;;;;;;;3.90;61.23;99072.94;10301443;28;20046;-86
2024/01/15 15:54:26;;;;;;;4.13;1.23;;;;;;;3.89;61.38;99083.72;10300092;28;20053;-86
2024/01/15 15:59:27;;;;;;;3.85;1.30;;;;;;;3.78;61.98;99091.03;10318703;28;20067;-86
2024/01/15 16:04:29;;;;;;;7.03;1.27;;;;;;;3.81;61.80;99102.31;10305815;28;20057;-85
2024/01/15 16:09:31;;;;;;;4.80;2.10;;;;;;;3.87;62.30;99097.19;10300371;28;20555;-85
2024/01/15 16:14:32;;;;;;;4.10;1.48;;;;;;;3.82;62.04;99104.81;10297817;28;20113;-85
2024/01/15 16:19:34;;;;;;;4.15;1.05;;;;;;;3.73;62.53;99098.69;10278793;28;20058;-85
2024/01/15 16:24:56;;;;;;;5.03;0.75;;;;;;;3.67;62.43;99125.03;10278742;28;20146;-86
2024/01/15 16:30:04;;;;;;;7.78;0.95;;;;;;;3.68;62.59;99111.59;10297042;28;20410;-85
2024/01/15 16:35:18;;;;;;;2.50;0.93;;;;;;;3.65;62.41;99125.19;10304831;28;20079;-85
2024/01/15 16:40:20;;;;;;;4.28;1.00;;;;;;;3.54;62.58;99144.94;10288169;28;20463;-86
2024/01/15 16:45:22;;;;;;;1.73;0.60;;;;;;;3.44;62.42;99156.69;10301132;28;20418;-84
2024/01/15 16:50:23;;;;;;;2.17;1.02;;;;;;;3.48;62.06;99158.88;10284919;28;20055;-85
2024/01/15 16:55:25;;;;;;;1.73;0.50;;;;;;;3.43;62.08;99165.66;10279964;28;20407;-79
2024/01/15 17:00:27;;;;;;;4.40;0.70;;;;;;;3.42;62.03;99182.59;10273342;28;20077;-82
2024/01/15 17:05:28;;;;;;;2.05;1.40;;;;;;;3.42;62.64;99185.25;10275230;28;20518;-81
2024/01/15 17:10:31;;;;;;;3.42;0.60;;;;;;;3.41;62.55;99210.97;10266781;28;20055;-80
2024/01/15 17:15:32;;;;;;;2.83;0.70;;;;;;;3.46;62.14;99203.34;10258338;28;20054;-81
2024/01/15 17:20:34;;;;;;;3.55;0.63;;;;;;;3.46;62.56;99203.34;10282369;28;20047;-84
2024/01/15 17:25:36;;;;;;;2.65;0.60;;;;;;;3.54;62.46;99216.69;10273981;28;20069;-83
2024/01/15 17:30:38;;;;;;;3.17;0.63;;;;;;;3.47;62.59;99220.94;10274132;28;20070;-82
2024/01/15 17:35:50;;;;;;;7.20;2.85;;;;;;;3.47;62.33;99223.59;10272826;28;20137;-83
2024/01/15 17:40:52;;;;;;;1.10;0.50;;;;;;;3.35;62.58;99236.31;10273999;28;20051;-81
2024/01/15 17:45:55;;;;;;;3.47;0.90;;;;;;;3.34;62.48;99239.97;10272363;28;20122;-80
2024/01/15 17:50:59;;;;;;;1.27;0.50;;;;;;;3.40;62.30;99243.84;10277790;28;20051;-82
2024/01/15 17:56:00;;;;;;;3.78;0.30;;;;;;;3.31;62.72;99258.06;10264211;28;20194;-82
2024/01/15 18:01:02;;;;;;;1.05;0.40;;;;;;;3.21;63.14;99254.66;10266803;28;20051;-82
2024/01/15 18:06:06;;;;;;;1.33;0.60;;;;;;;3.15;63.71;99264.09;10272698;28;20380;-81
2024/01/15 18:11:15;;;;;;;1.85;0.40;;;;;;;3.17;63.05;99270.91;10291872;28;20054;-81
2024/01/15 18:16:22;;;;;;;0.80;0.40;;;;;;;3.16;63.30;99281.69;10276037;28;20070;-81
2024/01/15 18:21:25;;;;;;;0.85;0.30;;;;;;;3.15;63.27;99293.28;10276650;28;20042;-82
2024/01/15 18:26:27;;;;;;;3.17;0.70;;;;;;;3.14;63.06;99294.25;10273468;28;20077;-82
2024/01/15 18:31:29;;;;;;;1.13;0.30;;;;;;;3.20;63.06;99314.91;10289650;28;20054;-83
2024/01/15 18:36:31;;;;;;;0.85;0.40;;;;;;;3.20;63.23;99335.31;10260220;28;20070;-80
2024/01/15 18:41:33;;;;;;;1.63;0.55;;;;;;;3.21;62.83;99335.16;10254924;28;20047;-81
2024/01/15 18:46:35;;;;;;;0.60;0.60;;;;;;;3.20;62.95;99340.63;10323104;23;20038;-81
2024/01/15 18:51:36;;;;;;;1.27;0.43;;;;;;;3.15;63.13;99351.72;10303524;28;20061;-82
2024/01/15 18:56:41;;;;;;;2.22;0.40;;;;;;;3.18;62.95;99354.91;10314752;28;20154;-83
2024/01/15 19:01:44;;;;;;;2.78;0.60;;;;;;;3.17;62.87;99349.72;10304496;28;20133;-83
2024/01/15 19:06:45;;;;;;;2.15;0.75;;;;;;;3.23;62.62;99356.25;10325327;28;20050;-86
2024/01/15 19:11:50;;;;;;;3.55;0.95;;;;;;;3.34;62.45;99359.50;10308584;28;20644;-81
2024/01/15 19:16:52;;;;;;;4.15;0.75;;;;;;;3.33;62.53;99373.75;10303716;28;20059;-80
2024/01/15 19:21:54;;;;;;;1.90;0.98;;;;;;;3.37;62.96;99363.66;10310023;28;20051;-81
2024/01/15 19:26:55;;;;;;;4.68;1.17;;;;;;;3.33;63.60;99380.91;10316140;28;20082;-81
2024/01/15 19:32:00;;;;;;;4.00;1.42;;;;;;;3.37;63.62;99371.63;10311612;28;20133;-80
2024/01/15 19:37:02;;;;;;;1.10;0.70;;;;;;;3.37;63.52;99379.59;10314884;28;20105;-81
2024/01/15 19:42:04;;;;;;;1.05;0.50;;;;;;;3.27;63.74;99374.38;10312064;28;20058;-81
2024/01/15 19:47:06;;;;;;;3.03;1.30;;;;;;;3.11;64.10;99390.16;10271048;28;20463;-81
2024/01/15 19:52:07;;;;;;;1.77;0.63;;;;;;;3.08;64.28;99386.00;10291032;28;20062;-81
2024/01/15 19:57:10;;;;;;;7.35;0.80;;;;;;;3.09;63.85;99384.19;10272299;28;20374;-81
2024/01/15 20:02:13;;;;;;;2.15;0.50;;;;;;;3.17;63.50;99398.34;10294871;28;20741;-82
2024/01/15 20:07:14;;;;;;;5.18;1.20;;;;;;;3.25;63.34;99391.47;10278558;28;20375;-81
2024/01/15 20:12:16;;;;;;;4.68;0.68;;;;;;;3.38;63.16;99389.25;10287645;28;20515;-82
2024/01/15 20:17:18;;;;;;;1.80;0.57;;;;;;;3.44;63.00;99391.28;10278162;28;20055;-81
2024/01/15 20:22:20;;;;;;;5.35;0.60;;;;;;;3.43;63.14;99402.06;10291049;28;20040;-80
2024/01/15 20:27:21;;;;;;;2.03;0.65;;;;;;;3.51;62.96;99408.25;10271179;28;20081;-81
2024/01/15 20:32:23;;;;;;;1.55;0.50;;;;;;;3.53;63.22;99400.16;10260801;28;20131;-82
2024/01/15 20:37:26;;;;;;;2.70;0.57;;;;;;;3.51;62.88;99388.84;10298899;28;20679;-82
2024/01/15 20:42:29;;;;;;;3.70;1.33;;;;;;;3.45;63.19;99390.28;10299425;28;20093;-82
2024/01/15 20:47:31;;;;;;;3.85;0.40;;;;;;;3.43;62.79;99418.00;10275410;28;20058;-82
2024/01/15 20:52:35;;;;;;;1.05;0.30;;;;;;;3.45;62.80;99410.72;10274743;28;20129;-81
2024/01/15 20:57:37;;;;;;;3.80;0.70;;;;;;;3.41;62.60;99406.69;10284133;28;20070;-81
2024/01/15 21:02:38;;;;;;;6.30;0.60;;;;;;;3.46;62.61;99431.00;10266098;28;20094;-81
2024/01/15 21:07:41;;;;;;;2.47;0.40;;;;;;;3.45;62.38;99443.41;10296622;28;20046;-80
2024/01/15 21:12:44;;;;;;;3.88;1.13;;;;;;;3.56;62.03;99455.66;10291328;28;20027;-79
2024/01/15 21:17:45;;;;;;;4.72;0.60;;;;;;;3.53;62.03;99450.63;10266305;28;20054;-80
2024/01/15 21:22:51;;;;;;;1.48;0.30;;;;;;;3.57;61.72;99465.28;10298816;28;20050;-81
2024/01/15 21:27:52;;;;;;;8.10;0.35;;;;;;;3.67;61.65;99470.50;10286177;28;20074;-80
2024/01/15 21:32:54;;;;;;;3.08;0.40;;;;;;;3.68;61.75;99473.03;10301946;28;20054;-78
2024/01/15 21:37:56;;;;;;;2.28;0.40;;;;;;;3.69;61.61;99480.03;10310718;28;20057;-80
2024/01/15 21:42:58;;;;;;;3.60;0.60;;;;;;;3.71;61.25;99485.16;10297027;28;20059;-79
2024/01/15 21:48:00;;;;;;;1.55;0.30;;;;;;;3.85;61.09;99499.72;10285256;28;20413;-79
2024/01/15 21:53:02;;;;;;;2.38;0.47;;;;;;;3.77;61.18;99495.16;10297643;28;20055;-79
2024/01/15 21:58:03;;;;;;;7.97;2.30;;;;;;;3.73;61.29;99497.31;10283991;28;20049;-79
2024/01/15 22:03:05;;;;;;;2.15;0.60;;;;;;;3.73;61.34;99502.63;10287629;28;20120;-79
2024/01/15 22:08:07;;;;;;;5.50;0.30;;;;;;;3.74;61.31;99512.28;10282367;28;20046;-79
2024/01/15 22:13:09;;;;;;;4.07;0.30;;;;;;;3.72;60.85;99508.09;10297252;28;20055;-79
2024/01/15 22:18:11;;;;;;;5.45;0.50;;;;;;;3.77;60.94;99522.59;10295776;28;20046;-80
2024/01/15 22:23:12;;;;;;;8.18;0.90;;;;;;;3.72;61.39;99534.69;10278769;28;20046;-81
2024/01/15 22:28:14;;;;;;;3.67;0.50;;;;;;;3.69;61.13;99545.59;10284093;28;20042;-81
2024/01/15 22:33:16;;;;;;;4.72;0.70;;;;;;;3.67;60.80;99561.69;10296590;28;20050;-80
2024/01/15 22:38:18;;;;;;;6.78;0.90;;;;;;;3.64;61.04;99562.00;10312389;28;20058;-80
2024/01/15 22:43:20;;;;;;;2.65;0.50;;;;;;;3.52;61.43;99569.38;10280588;28;20054;-80
2024/01/15 22:48:22;;;;;;;3.08;0.57;;;;;;;3.57;61.24;99575.06;10283415;28;20055;-81
2024/01/15 22:53:24;;;;;;;7.80;0.63;;;;;;;3.54;61.11;99575.34;10256274;28;20131;-81
2024/01/15 22:58:26;;;;;;;3.95;0.40;;;;;;;3.41;61.26;99561.59;10304687;28;20105;-81
2024/01/15 23:03:27;;;;;;;3.10;0.50;;;;;;;3.23;61.65;99579.31;10305032;28;20097;-81
2024/01/15 23:08:29;;;;;;;4.78;1.40;;;;;;;3.18;61.65;99591.22;10294227;28;20054;-81
2024/01/15 23:13:31;;;;;;;6.32;0.90;;;;;;;3.14;61.89;99591.66;10263897;28;20126;-81
2024/01/15 23:18:32;;;;;;;3.95;0.65;;;;;;;3.09;62.22;99593.94;10282264;28;20043;-80
2024/01/15 23:23:34;;;;;;;6.07;0.95;;;;;;;3.10;61.92;99601.75;10278317;28;20035;-82
2024/01/15 23:28:36;;;;;;;2.47;0.85;;;;;;;3.09;61.95;99604.53;10283980;28;20055;-81
2024/01/15 23:33:38;;;;;;;1.92;0.30;;;;;;;3.09;62.38;99609.84;10281201;28;21821;-81
2024/01/15 23:38:40;;;;;;;2.92;0.40;;;;;;;3.15;62.19;99618.06;10270367;28;20074;-81
2024/01/15 23:43:42;;;;;;;0.90;0.32;;;;;;;3.09;62.04;99620.47;10288690;28;20102;-81
2024/01/15 23:48:45;;;;;;;1.08;0.47;;;;;;;3.04;62.13;99626.25;10293169;28;20042;-81
2024/01/15 23:53:48;;;;;;;2.70;0.40;;;;;;;3.01;62.48;99636.31;10295256;28;20128;-82